Time;durP1;ratioP1;P1;durP2;ratioP2;P2;SDS_P1;SDS_P2;PMS_P1;PMS_P2;Temp;Humidity;BMP_temperature;BMP_pressure;BME280_temperature;BME280_humidity;BME280_pressure;Samples;Min_cycle;Max_cycle;Signal;HPM_P1;HPM_P2
2023/12/01 00:01:10;;;;;;;37.60;16.60;;;;;;;-3.22;79.97;99960.69;4913667;29;20115;-75
2023/12/01 00:03:37;;;;;;;39.50;18.27;;;;;;;-3.22;79.60;99966.00;4912605;29;20052;-77
2023/12/01 00:06:04;;;;;;;38.85;17.73;;;;;;;-3.04;79.90;99959.03;4912964;29;20072;-77
2023/12/01 00:08:30;;;;;;;34.75;17.05;;;;;;;-2.95;79.78;99963.91;4913138;29;20493;-77
2023/12/01 00:10:57;;;;;;;35.17;16.95;;;;;;;-3.08;79.70;99965.38;4913442;29;20115;-77
2023/12/01 00:13:23;;;;;;;33.20;15.82;;;;;;;-3.05;78.93;99970.53;4913364;29;20127;-76
2023/12/01 00:15:51;;;;;;;33.55;16.58;;;;;;;-2.95;79.61;99966.56;4912959;29;20052;-77
2023/12/01 00:18:18;;;;;;;29.88;15.63;;;;;;;-3.23;79.73;99966.94;4912585;29;20123;-76
2023/12/01 00:20:44;;;;;;;35.58;17.70;;;;;;;-3.37;80.16;99970.16;4912779;29;20521;-77
2023/12/01 00:23:11;;;;;;;36.10;16.55;;;;;;;-3.36;80.63;99966.59;4912879;29;20485;-77
2023/12/01 00:25:38;;;;;;;32.28;14.73;;;;;;;-3.64;80.03;99966.03;4912829;29;20072;-78
2023/12/01 00:28:04;;;;;;;33.92;16.02;;;;;;;-3.66;80.91;99971.41;4912845;29;20076;-78
2023/12/01 00:30:31;;;;;;;38.67;16.42;;;;;;;-3.62;80.78;99966.84;4913007;29;20515;-77
2023/12/01 00:33:00;;;;;;;32.00;15.15;;;;;;;-3.40;80.91;99980.06;4916590;29;20058;-78
2023/12/01 00:35:27;;;;;;;32.20;15.88;;;;;;;-3.49;80.22;99980.44;4930477;29;20052;-78
2023/12/01 00:37:54;;;;;;;32.33;15.90;;;;;;;-3.32;79.53;99977.94;4916148;29;20107;-79
2023/12/01 00:40:20;;;;;;;31.50;15.18;;;;;;;-3.26;79.91;99971.50;4916396;29;20107;-78
2023/12/01 00:42:48;;;;;;;31.52;15.20;;;;;;;-3.27;79.73;99975.94;4916585;29;20394;-79
2023/12/01 00:45:15;;;;;;;36.75;16.27;;;;;;;-3.24;79.79;99970.47;4917879;29;20486;-79
2023/12/01 00:47:42;;;;;;;35.17;16.80;;;;;;;-3.20;80.06;99971.22;4916939;29;20052;-79
2023/12/01 00:50:09;;;;;;;37.35;15.63;;;;;;;-3.12;79.61;99977.06;4915310;29;20048;-79
2023/12/01 00:52:36;;;;;;;31.80;16.00;;;;;;;-3.06;78.74;99976.78;4916761;29;20158;-80
2023/12/01 00:55:02;;;;;;;28.33;14.35;;;;;;;-3.05;78.98;99984.69;4917432;29;20078;-80
2023/12/01 00:57:29;;;;;;;30.27;14.95;;;;;;;-3.06;78.62;99979.41;4916773;29;20108;-80
2023/12/01 00:59:56;;;;;;;30.40;15.05;;;;;;;-2.99;78.82;99980.88;4917636;29;20064;-77
2023/12/01 01:02:22;;;;;;;29.65;14.77;;;;;;;-3.00;78.81;99979.16;4916617;29;20497;-79
2023/12/01 01:04:49;;;;;;;30.38;14.55;;;;;;;-2.89;79.28;99984.84;4916833;29;20502;-79
2023/12/01 01:07:16;;;;;;;34.22;15.85;;;;;;;-2.77;78.23;99986.97;4916463;29;20063;-80
2023/12/01 01:09:42;;;;;;;31.20;16.25;;;;;;;-2.75;78.48;99989.53;4917337;29;20118;-79
2023/12/01 01:12:09;;;;;;;33.00;15.32;;;;;;;-2.70;78.74;99991.97;4930896;29;20080;-80
2023/12/01 01:14:35;;;;;;;30.95;14.60;;;;;;;-2.69;78.98;99996.34;4916370;29;20051;-79
2023/12/01 01:17:02;;;;;;;32.47;15.73;;;;;;;-2.78;78.70;99995.81;4918094;29;20085;-79
2023/12/01 01:19:28;;;;;;;33.25;15.43;;;;;;;-2.73;78.96;99996.50;4916769;29;20496;-78
2023/12/01 01:21:56;;;;;;;31.02;15.45;;;;;;;-2.77;79.44;100002.00;4917319;29;20461;-80
2023/12/01 01:24:23;;;;;;;38.72;16.13;;;;;;;-2.78;79.16;100008.25;4916822;29;20048;-78
2023/12/01 01:26:50;;;;;;;32.53;15.90;;;;;;;-2.87;79.12;100004.19;4916951;29;20052;-79
2023/12/01 01:29:17;;;;;;;29.77;14.40;;;;;;;-2.94;79.66;100000.13;4916659;29;20120;-76
2023/12/01 01:31:44;;;;;;;37.63;17.08;;;;;;;-2.89;79.82;100000.75;4917751;29;20565;-79
2023/12/01 01:34:13;;;;;;;32.15;16.02;;;;;;;-2.98;80.42;100002.97;4917037;29;20052;-79
2023/12/01 01:36:40;;;;;;;35.92;17.75;;;;;;;-2.88;79.88;100004.28;4917311;29;20126;-80
2023/12/01 01:39:06;;;;;;;33.63;16.83;;;;;;;-3.04;79.93;100004.13;4916070;29;20052;-79
2023/12/01 01:41:33;;;;;;;33.33;16.02;;;;;;;-3.17;80.39;100008.22;4915118;29;20044;-79
2023/12/01 01:43:59;;;;;;;32.65;16.05;;;;;;;-3.15;80.42;100003.69;4915885;29;20063;-79
2023/12/01 01:46:27;;;;;;;32.80;16.25;;;;;;;-3.29;81.70;100004.31;4916137;29;20402;-79
2023/12/01 01:48:54;;;;;;;34.28;15.73;;;;;;;-3.32;81.52;100004.44;4915654;29;20084;-79
2023/12/01 01:51:22;;;;;;;36.88;15.93;;;;;;;-3.20;81.21;100009.22;4915965;29;20070;-79
2023/12/01 01:53:49;;;;;;;33.38;15.93;;;;;;;-3.13;81.18;100010.69;4916226;29;20075;-79
2023/12/01 01:56:16;;;;;;;32.28;15.70;;;;;;;-3.15;80.76;100006.34;4917398;29;20048;-79
2023/12/01 01:58:43;;;;;;;33.72;17.05;;;;;;;-3.18;80.99;100001.19;4916209;29;20059;-80
2023/12/01 02:01:10;;;;;;;31.88;16.08;;;;;;;-3.14;81.01;99994.81;4916232;29;20055;-79
2023/12/01 02:03:37;;;;;;;31.55;15.48;;;;;;;-3.06;80.79;99995.34;4916198;29;20063;-78
2023/12/01 02:09:51;;;;;;;33.80;16.23;;;;;;;-3.27;80.74;100004.25;4897079;29;20052;-79
2023/12/01 02:12:17;;;;;;;37.72;17.42;;;;;;;-3.19;80.97;100007.44;4897136;29;20504;-77
2023/12/01 02:14:44;;;;;;;28.77;14.57;;;;;;;-3.26;80.91;99998.00;4897935;29;20082;-78
2023/12/01 02:17:10;;;;;;;30.95;15.63;;;;;;;-3.30;80.51;99994.63;4897312;29;20137;-78
2023/12/01 02:19:38;;;;;;;32.42;15.55;;;;;;;-3.37;81.28;99995.81;4897178;29;20052;-77
2023/12/01 02:22:05;;;;;;;32.42;15.50;;;;;;;-3.50;80.75;99992.84;4896565;29;20052;-78
2023/12/01 02:24:33;;;;;;;35.28;16.75;;;;;;;-3.44;80.85;99992.56;4896616;29;20040;-78
2023/12/01 02:26:59;;;;;;;32.60;15.50;;;;;;;-3.50;80.68;99999.94;4897123;29;20470;-78
2023/12/01 02:29:26;;;;;;;38.72;16.35;;;;;;;-3.61;80.86;99997.72;4897329;29;20482;-79
2023/12/01 02:31:52;;;;;;;36.92;15.43;;;;;;;-3.68;81.66;99998.91;4897391;29;20478;-78
2023/12/01 02:34:22;;;;;;;34.30;16.23;;;;;;;-3.70;81.06;100003.38;4896700;29;20040;-76
2023/12/01 02:36:50;;;;;;;32.55;15.10;;;;;;;-3.63;81.02;100008.38;4897591;29;20094;-78
2023/12/01 02:39:16;;;;;;;26.90;14.35;;;;;;;-3.58;81.06;100003.75;4912163;29;20053;-80
2023/12/01 02:41:43;;;;;;;31.65;15.32;;;;;;;-3.57;80.38;100007.28;4916274;29;20075;-77
2023/12/01 02:44:12;;;;;;;28.55;15.10;;;;;;;-3.69;80.83;99999.84;4915878;29;20070;-78
2023/12/01 02:46:38;;;;;;;29.40;15.02;;;;;;;-3.72;80.93;100000.81;4915565;29;20048;-77
2023/12/01 02:49:08;;;;;;;30.08;14.25;;;;;;;-3.74;81.58;99997.38;4915243;29;20609;-77
2023/12/01 02:51:34;;;;;;;34.05;15.80;;;;;;;-3.79;81.58;99998.47;4914960;29;20390;-79
2023/12/01 02:54:01;;;;;;;29.73;14.57;;;;;;;-3.88;81.42;99989.13;4914292;29;20052;-79
2023/12/01 02:56:28;;;;;;;27.50;13.65;;;;;;;-3.92;82.11;99987.53;4915219;29;20111;-79
2023/12/01 02:58:54;;;;;;;28.25;14.02;;;;;;;-3.87;81.76;99993.50;4916020;29;20116;-79
2023/12/01 03:01:23;;;;;;;30.65;14.63;;;;;;;-3.86;81.53;100003.19;4915659;29;20052;-79
2023/12/01 03:03:51;;;;;;;27.92;14.55;;;;;;;-3.84;81.95;100003.09;4915681;29;20092;-77
2023/12/01 03:06:18;;;;;;;25.70;13.82;;;;;;;-3.90;81.61;100007.72;4915624;29;20470;-78
2023/12/01 03:08:46;;;;;;;28.15;13.73;;;;;;;-3.84;81.60;100001.31;4915049;29;20112;-79
2023/12/01 03:11:12;;;;;;;30.35;14.07;;;;;;;-3.78;81.36;100005.53;4915272;29;20044;-79
2023/12/01 03:13:39;;;;;;;27.00;13.00;;;;;;;-3.85;81.19;100009.34;4915472;29;20056;-79
2023/12/01 03:16:06;;;;;;;27.42;13.95;;;;;;;-3.84;81.59;100011.91;4915566;29;20056;-79
2023/12/01 03:18:33;;;;;;;28.48;13.85;;;;;;;-3.95;81.05;100012.34;4914942;29;20068;-79
2023/12/01 03:20:59;;;;;;;29.35;14.85;;;;;;;-3.81;81.29;100017.06;4914918;29;20048;-79
2023/12/01 03:23:26;;;;;;;29.95;14.35;;;;;;;-3.85;81.29;100014.63;4915092;29;20055;-79
2023/12/01 03:25:52;;;;;;;27.00;13.70;;;;;;;-3.89;81.50;100020.03;4915663;29;20469;-77
2023/12/01 03:28:19;;;;;;;25.92;13.55;;;;;;;-3.92;81.50;100025.47;4914959;29;20048;-77
2023/12/01 03:30:46;;;;;;;30.85;14.45;;;;;;;-3.84;81.76;100016.34;4915755;29;20519;-77
2023/12/01 03:33:12;;;;;;;29.63;14.20;;;;;;;-3.82;81.14;100022.44;4915597;29;20470;-78
2023/12/01 03:35:39;;;;;;;30.45;14.38;;;;;;;-3.82;81.24;100019.78;4915246;29;20070;-77
2023/12/01 03:38:13;;;;;;;32.35;14.38;;;;;;;-3.93;81.06;100026.41;4915469;29;20386;-78
2023/12/01 03:40:40;;;;;;;29.00;13.90;;;;;;;-3.75;79.65;100026.56;4913072;29;20064;-77
2023/12/01 03:43:07;;;;;;;29.17;14.40;;;;;;;-3.79;80.81;100024.97;4914583;29;20052;-77
2023/12/01 03:45:34;;;;;;;25.83;13.55;;;;;;;-3.75;80.33;100026.56;4914761;29;20406;-78
2023/12/01 03:48:00;;;;;;;32.45;14.27;;;;;;;-3.78;80.15;100034.66;4913987;29;20062;-78
2023/12/01 03:50:28;;;;;;;25.17;13.25;;;;;;;-3.77;80.10;100033.72;4914248;29;20524;-78
2023/12/01 03:52:55;;;;;;;30.30;12.63;;;;;;;-3.83;79.76;100039.28;4930084;29;20502;-78
2023/12/01 03:55:21;;;;;;;23.45;12.07;;;;;;;-3.81;80.54;100038.28;4917208;28;20088;-77
2023/12/01 03:57:48;;;;;;;26.25;13.25;;;;;;;-3.77;79.94;100044.34;4914074;29;20100;-77
2023/12/01 04:00:17;;;;;;;26.77;12.90;;;;;;;-3.74;79.52;100045.06;4915053;29;20048;-78
2023/12/01 04:02:47;;;;;;;22.90;12.65;;;;;;;-3.77;78.68;100036.38;4907922;29;20584;-78
2023/12/01 04:05:21;;;;;;;20.42;10.48;;;;;;;-3.74;78.72;100038.91;4918408;28;20107;-78
2023/12/01 04:07:53;;;;;;;25.50;11.80;;;;;;;-3.71;78.49;100036.13;4918130;29;20055;-78
2023/12/01 04:10:27;;;;;;;26.60;12.68;;;;;;;-3.78;78.10;100032.88;4926972;28;20067;-77
2023/12/01 04:12:54;;;;;;;20.42;10.93;;;;;;;-3.84;78.18;100037.56;4937391;28;20055;-78
2023/12/01 04:15:25;;;;;;;29.50;11.23;;;;;;;-3.77;78.52;100031.09;4936651;28;20043;-78
2023/12/01 04:17:53;;;;;;;20.27;10.82;;;;;;;-3.77;78.59;100041.69;4938155;28;20055;-77
2023/12/01 04:20:25;;;;;;;25.35;11.15;;;;;;;-3.79;77.91;100035.56;4937931;28;20519;-77
2023/12/01 04:22:58;;;;;;;19.73;9.68;;;;;;;-3.79;77.57;100038.22;4937859;28;20047;-78
2023/12/01 04:25:27;;;;;;;19.50;9.68;;;;;;;-3.60;77.15;100039.22;4937257;28;20047;-77
2023/12/01 04:27:54;;;;;;;20.58;8.82;;;;;;;-3.62;76.45;100039.25;4936541;28;20051;-77
2023/12/01 04:30:23;;;;;;;20.50;9.50;;;;;;;-3.61;76.67;100034.81;4936755;28;20047;-77
2023/12/01 04:32:52;;;;;;;16.00;8.52;;;;;;;-3.55;77.39;100037.22;4937381;28;20054;-78
2023/12/01 04:35:22;;;;;;;18.42;8.90;;;;;;;-3.60;76.90;100036.56;4936735;28;20419;-76
2023/12/01 04:37:49;;;;;;;14.13;7.28;;;;;;;-3.94;75.38;100035.25;4937518;28;20110;-77
2023/12/01 04:40:16;;;;;;;13.82;7.28;;;;;;;-3.60;76.07;100034.78;4936951;28;20047;-77
2023/12/01 04:42:45;;;;;;;14.32;7.43;;;;;;;-3.60;75.14;100041.88;4937231;28;20047;-70
2023/12/01 04:45:18;;;;;;;14.23;7.38;;;;;;;-3.59;75.75;100048.88;4936094;28;20052;-70
2023/12/01 04:47:46;;;;;;;14.98;7.53;;;;;;;-3.58;74.58;100045.31;4936029;28;20051;-73
2023/12/01 04:50:14;;;;;;;15.80;7.15;;;;;;;-3.71;74.70;100044.06;4917022;29;20052;-71
2023/12/01 04:52:46;;;;;;;16.77;8.02;;;;;;;-3.74;75.56;100053.00;4932318;28;20134;-71
2023/12/01 04:55:14;;;;;;;18.40;8.32;;;;;;;-3.69;75.54;100061.66;4898728;29;20048;-78
2023/12/01 04:57:42;;;;;;;17.35;8.65;;;;;;;-4.04;76.06;100060.41;4898127;29;20430;-77
2023/12/01 05:00:22;;;;;;;17.30;7.38;;;;;;;-3.93;76.72;100059.97;4912080;29;20107;-79
2023/12/01 05:02:54;;;;;;;15.70;8.02;;;;;;;-3.84;76.60;100058.75;4897157;29;20052;-78
2023/12/01 05:05:22;;;;;;;13.68;7.55;;;;;;;-3.94;76.45;100052.94;4897688;29;20498;-77
2023/12/01 05:07:52;;;;;;;15.50;7.63;;;;;;;-3.75;76.71;100040.69;4897839;29;20471;-77
2023/12/01 05:10:21;;;;;;;17.40;7.68;;;;;;;-3.78;77.11;100035.53;4898031;29;20052;-78
2023/12/01 05:12:50;;;;;;;15.50;8.30;;;;;;;-3.83;76.68;100056.03;4897494;29;20052;-77
2023/12/01 05:15:22;;;;;;;18.52;8.00;;;;;;;-4.02;76.84;100055.91;4897694;29;20671;-79
2023/12/01 05:17:50;;;;;;;17.48;8.50;;;;;;;-4.13;77.78;100062.53;4881819;29;20049;-73
2023/12/01 05:20:19;;;;;;;19.52;7.63;;;;;;;-4.07;77.68;100063.19;4879545;29;20045;-73
2023/12/01 05:22:47;;;;;;;20.90;8.32;;;;;;;-4.23;77.72;100064.69;4886379;29;20056;-72
2023/12/01 05:25:16;;;;;;;16.38;8.45;;;;;;;-4.31;79.39;100061.47;4883226;29;20100;-72
2023/12/01 05:27:51;;;;;;;19.20;8.23;;;;;;;-4.22;79.17;100058.47;4889856;29;20049;-72
2023/12/01 05:30:20;;;;;;;18.35;9.07;;;;;;;-4.04;79.73;100057.75;4897344;29;20421;-73
2023/12/01 05:32:48;;;;;;;21.27;10.05;;;;;;;-3.97;79.46;100061.03;4897726;29;20524;-72
2023/12/01 05:35:16;;;;;;;15.07;8.00;;;;;;;-4.12;79.08;100057.19;4897495;29;20132;-72
2023/12/01 05:37:48;;;;;;;17.63;8.30;;;;;;;-4.37;79.33;100065.19;4879022;29;20414;-72
2023/12/01 05:40:22;;;;;;;15.32;8.45;;;;;;;-4.41;79.65;100068.88;4894321;29;20048;-72
2023/12/01 05:42:54;;;;;;;16.00;8.15;;;;;;;-4.38;80.20;100059.94;4897616;29;20115;-72
2023/12/01 05:45:22;;;;;;;16.75;8.57;;;;;;;-4.16;80.14;100061.75;4897544;29;20044;-74
2023/12/01 05:47:52;;;;;;;19.58;7.65;;;;;;;-4.09;79.87;100065.00;4897306;29;20112;-73
2023/12/01 05:50:21;;;;;;;19.10;9.05;;;;;;;-4.16;79.92;100068.81;4898693;29;20049;-78
2023/12/01 05:52:51;;;;;;;18.20;9.60;;;;;;;-4.16;79.59;100063.53;4898705;29;20056;-79
2023/12/01 05:55:23;;;;;;;16.30;7.95;;;;;;;-3.94;79.46;100067.06;4897960;29;20051;-76
2023/12/01 05:57:54;;;;;;;19.42;7.88;;;;;;;-4.06;79.05;100070.19;4897871;29;20465;-79
2023/12/01 06:00:29;;;;;;;21.00;8.85;;;;;;;-4.21;78.97;100082.22;4898686;29;20140;-77
2023/12/01 06:03:08;;;;;;;16.63;8.82;;;;;;;-4.07;78.62;100087.00;4899240;29;20049;-80
2023/12/01 06:05:37;;;;;;;18.00;8.32;;;;;;;-4.21;78.63;100098.09;4898711;29;20065;-79
2023/12/01 06:08:04;;;;;;;16.23;8.20;;;;;;;-4.21;78.26;100092.81;4898488;29;20135;-79
2023/12/01 06:10:32;;;;;;;13.18;7.70;;;;;;;-4.09;78.72;100093.25;4898659;29;20045;-80
2023/12/01 06:13:00;;;;;;;17.85;8.00;;;;;;;-3.99;78.84;100084.91;4898802;29;20478;-78
2023/12/01 06:15:30;;;;;;;17.05;8.63;;;;;;;-3.93;78.84;100087.31;4896890;29;20108;-78
2023/12/01 06:17:58;;;;;;;17.73;9.18;;;;;;;-3.79;78.80;100091.19;4896520;29;20062;-79
2023/12/01 06:20:26;;;;;;;15.27;8.48;;;;;;;-3.83;77.97;100097.56;4896949;29;20049;-79
2023/12/01 06:22:56;;;;;;;16.95;8.43;;;;;;;-3.94;78.12;100101.50;4896306;29;20146;-79
2023/12/01 06:25:28;;;;;;;18.05;8.23;;;;;;;-3.85;78.38;100099.41;4897397;29;20044;-79
2023/12/01 06:27:56;;;;;;;21.10;9.38;;;;;;;-3.82;78.32;100101.94;4897362;29;20080;-79
2023/12/01 06:30:24;;;;;;;21.17;8.82;;;;;;;-3.81;78.18;100101.00;4896979;29;20052;-78
2023/12/01 06:32:51;;;;;;;18.88;8.35;;;;;;;-3.85;78.02;100102.91;4897800;29;20052;-78
2023/12/01 06:35:19;;;;;;;19.23;8.77;;;;;;;-3.78;77.70;100103.56;4897378;29;20048;-75
2023/12/01 06:37:47;;;;;;;17.52;8.07;;;;;;;-3.94;77.88;100104.13;4898318;29;20562;-79
2023/12/01 06:40:17;;;;;;;15.07;8.23;;;;;;;-3.95;77.31;100107.72;4896641;29;20049;-78
2023/12/01 06:42:46;;;;;;;17.33;8.32;;;;;;;-3.95;77.62;100110.34;4893317;29;20048;-79
2023/12/01 06:45:17;;;;;;;20.63;9.15;;;;;;;-3.92;78.72;100110.22;4896752;29;20052;-79
2023/12/01 06:47:48;;;;;;;15.48;8.18;;;;;;;-4.02;77.97;100114.16;4896378;29;20060;-79
2023/12/01 06:50:19;;;;;;;18.52;8.70;;;;;;;-4.11;78.71;100118.94;4896797;29;20046;-79
2023/12/01 06:52:46;;;;;;;;;;;;;;;-4.04;78.37;100120.44;4898213;29;20076;-78
2023/12/01 06:55:13;;;;;;;18.00;9.25;;;;;;;-4.17;78.97;100123.53;4934335;28;20276;-78
2023/12/01 06:57:41;;;;;;;25.65;10.25;;;;;;;-4.16;79.07;100132.38;4934472;28;20061;-76
2023/12/01 07:00:36;;;;;;;19.45;9.40;;;;;;;-4.17;79.28;100130.63;4934343;28;20079;-79
2023/12/01 07:03:07;;;;;;;19.17;9.68;;;;;;;-4.10;79.57;100140.06;4932898;28;20047;-78
2023/12/01 07:05:37;;;;;;;18.88;9.82;;;;;;;-4.23;79.67;100131.72;4933166;28;20120;-79
2023/12/01 07:08:04;;;;;;;23.10;10.77;;;;;;;-4.24;80.22;100137.09;4933846;28;20048;-80
2023/12/01 07:10:34;;;;;;;22.27;10.18;;;;;;;-4.14;80.05;100143.75;4934480;28;20103;-77
2023/12/01 07:13:01;;;;;;;22.20;11.10;;;;;;;-4.02;80.57;100140.66;4934321;28;20106;-77
2023/12/01 07:15:29;;;;;;;22.02;10.05;;;;;;;-4.01;79.89;100152.09;4933428;28;20508;-80
2023/12/01 07:17:57;;;;;;;21.50;10.90;;;;;;;-3.99;79.87;100151.13;4934119;28;20051;-79
2023/12/01 07:20:24;;;;;;;20.27;10.32;;;;;;;-4.02;79.48;100151.25;4934318;28;20457;-79
2023/12/01 07:22:52;;;;;;;21.52;10.38;;;;;;;-4.05;79.95;100159.31;4933272;28;20146;-78
2023/12/01 07:25:22;;;;;;;23.48;10.70;;;;;;;-4.08;79.93;100167.34;4932457;28;20047;-78
2023/12/01 07:27:58;;;;;;;23.83;11.70;;;;;;;-4.10;79.40;100169.19;4933636;28;20058;-78
2023/12/01 07:30:27;;;;;;;23.50;11.32;;;;;;;-4.07;79.36;100169.09;4932642;28;20044;-79
2023/12/01 07:32:55;;;;;;;27.10;11.00;;;;;;;-4.21;79.18;100176.69;4933041;28;20075;-79
2023/12/01 07:35:23;;;;;;;26.48;12.40;;;;;;;-4.09;79.73;100185.94;4932819;28;20062;-78
2023/12/01 07:37:52;;;;;;;24.17;11.70;;;;;;;-4.09;79.14;100183.31;4933614;28;20473;-79
2023/12/01 07:40:21;;;;;;;26.77;12.43;;;;;;;-4.16;79.15;100187.97;4931748;28;20079;-77
2023/12/01 07:42:54;;;;;;;26.25;12.13;;;;;;;-4.15;79.32;100184.41;4932878;28;20416;-77
2023/12/01 07:45:21;;;;;;;25.08;13.40;;;;;;;-4.04;79.03;100187.53;4932974;28;20102;-78
2023/12/01 07:47:50;;;;;;;26.50;12.70;;;;;;;-3.84;78.53;100193.84;4933371;28;20058;-77
2023/12/01 07:50:18;;;;;;;23.58;12.32;;;;;;;-4.02;78.35;100193.63;4934692;28;20054;-78
2023/12/01 07:52:47;;;;;;;38.45;13.60;;;;;;;-4.10;78.28;100200.13;4933659;28;20070;-78
2023/12/01 07:55:14;;;;;;;25.73;13.02;;;;;;;-4.18;78.05;100205.69;4914626;29;20056;-79
2023/12/01 07:57:41;;;;;;;32.83;13.27;;;;;;;-4.15;77.87;100208.25;4913327;29;20056;-79
2023/12/01 08:00:16;;;;;;;30.77;13.00;;;;;;;-4.12;78.15;100209.91;4914681;29;20056;-79
2023/12/01 08:02:46;;;;;;;37.45;12.48;;;;;;;-4.21;78.19;100214.59;4915145;29;20063;-79
2023/12/01 08:05:14;;;;;;;29.33;13.18;;;;;;;-4.31;78.14;100218.50;4914589;29;20056;-79
2023/12/01 08:07:45;;;;;;;27.67;12.40;;;;;;;-4.19;78.02;100215.41;4914442;29;20056;-80
2023/12/01 08:10:15;;;;;;;33.05;13.57;;;;;;;-4.10;77.36;100222.16;4914362;29;20048;-79
2023/12/01 08:12:44;;;;;;;;;;;;;;;-4.26;77.86;100226.28;4914915;29;20056;-79
2023/12/01 08:15:11;;;;;;;22.67;11.77;;;;;;;-4.08;77.54;100228.25;4929137;29;20010;-79
2023/12/01 08:17:39;;;;;;;25.83;12.23;;;;;;;-3.77;78.36;100229.81;4914099;29;20561;-79
2023/12/01 08:20:06;;;;;;;24.73;12.57;;;;;;;-3.69;77.50;100227.72;4914273;29;20139;-79
2023/12/01 08:22:35;;;;;;;24.58;11.82;;;;;;;-3.97;76.83;100228.75;4913447;29;20484;-79
2023/12/01 08:25:02;;;;;;;32.28;14.00;;;;;;;-3.95;77.87;100237.50;4914723;29;20048;-79
2023/12/01 08:27:29;;;;;;;29.10;13.50;;;;;;;-3.71;76.44;100234.84;4914850;29;20052;-79
2023/12/01 08:29:56;;;;;;;30.45;13.43;;;;;;;-3.57;76.14;100235.22;4916322;29;20048;-79
2023/12/01 08:32:24;;;;;;;26.45;13.27;;;;;;;-3.44;76.16;100228.50;4912609;29;20524;-77
2023/12/01 08:34:51;;;;;;;25.13;12.55;;;;;;;-3.59;75.27;100242.38;4913877;29;20048;-79
2023/12/01 08:37:18;;;;;;;27.77;13.48;;;;;;;-3.46;75.82;100234.78;4914509;29;20076;-77
2023/12/01 08:39:49;;;;;;;27.17;13.23;;;;;;;-3.45;75.75;100234.72;4926394;29;20139;-79
2023/12/01 08:42:16;;;;;;;27.20;12.93;;;;;;;-3.30;75.00;100235.94;4914148;29;20058;-79
2023/12/01 08:44:43;;;;;;;29.25;13.68;;;;;;;-3.18;73.66;100234.56;4913480;29;20457;-77
2023/12/01 08:47:12;;;;;;;27.75;13.10;;;;;;;-3.16;74.14;100232.72;4913525;29;20049;-79
2023/12/01 08:49:40;;;;;;;37.97;14.90;;;;;;;-3.24;73.49;100238.31;4913024;29;20052;-79
2023/12/01 08:52:07;;;;;;;25.92;12.52;;;;;;;-3.01;73.35;100237.44;4913878;29;20080;-79
2023/12/01 08:54:35;;;;;;;27.85;12.82;;;;;;;-3.21;74.55;100234.72;4916861;29;20099;-79
2023/12/01 08:57:02;;;;;;;26.27;12.65;;;;;;;-2.83;73.41;100246.44;4917136;29;20055;-79
2023/12/01 08:59:29;;;;;;;27.88;13.32;;;;;;;-2.93;73.59;100245.09;4916888;29;20055;-79
2023/12/01 09:01:56;;;;;;;28.27;13.57;;;;;;;-2.80;72.24;100247.16;4932215;29;20103;-79
2023/12/01 09:04:22;;;;;;;28.98;12.55;;;;;;;-2.97;73.09;100252.28;4916087;29;20099;-80
2023/12/01 09:06:49;;;;;;;23.67;11.98;;;;;;;-2.58;72.45;100246.25;4917428;29;20084;-78
2023/12/01 09:09:19;;;;;;;26.08;12.40;;;;;;;-2.34;71.51;100253.19;4918735;29;20569;-74
2023/12/01 09:11:45;;;;;;;23.52;11.57;;;;;;;-2.45;70.97;100252.78;4918747;29;20055;-79
2023/12/01 09:14:12;;;;;;;29.40;12.23;;;;;;;-2.61;71.70;100251.72;4923221;29;20043;-80
2023/12/01 09:16:39;;;;;;;26.73;12.43;;;;;;;-2.44;71.36;100254.53;4917052;29;20506;-80
2023/12/01 09:19:06;;;;;;;28.75;12.70;;;;;;;-2.58;72.18;100262.19;4919298;29;20048;-75
2023/12/01 09:21:34;;;;;;;30.15;12.50;;;;;;;-2.52;72.13;100267.25;4926766;29;20106;-75
2023/12/01 09:24:00;;;;;;;23.95;11.10;;;;;;;-2.57;71.64;100271.91;4926525;29;20054;-74
2023/12/01 09:26:31;;;;;;;28.27;12.18;;;;;;;-2.38;72.13;100264.91;4927266;29;20048;-75
2023/12/01 09:28:58;;;;;;;29.58;12.57;;;;;;;-2.58;71.43;100272.81;4927564;29;20071;-75
2023/12/01 09:31:25;;;;;;;21.17;10.75;;;;;;;-2.47;72.47;100262.63;4925055;29;20074;-75
2023/12/01 09:33:52;;;;;;;26.65;11.75;;;;;;;-2.41;71.84;100251.72;4926184;29;20120;-75
2023/12/01 09:36:19;;;;;;;24.85;12.35;;;;;;;-2.38;71.73;100248.97;4922522;29;20048;-76
2023/12/01 09:38:49;;;;;;;26.00;11.70;;;;;;;-2.35;71.81;100254.13;4920574;29;20063;-75
2023/12/01 09:41:17;;;;;;;25.63;11.55;;;;;;;-2.12;72.14;100265.53;4919081;29;20537;-75
2023/12/01 09:43:48;;;;;;;23.27;12.48;;;;;;;-2.20;71.33;100264.09;4918184;29;20103;-76
2023/12/01 09:46:20;;;;;;;32.00;12.43;;;;;;;-1.42;68.98;100257.06;4918794;29;20048;-75
2023/12/01 09:48:46;;;;;;;22.83;12.05;;;;;;;-0.52;66.17;100256.25;4918285;29;20136;-75
2023/12/01 09:51:13;;;;;;;23.73;12.00;;;;;;;0.49;62.63;100248.31;4917801;29;20052;-76
2023/12/01 09:53:40;;;;;;;21.35;12.20;;;;;;;1.25;60.06;100241.34;4925600;28;20055;-76
2023/12/01 09:56:07;;;;;;;21.00;12.05;;;;;;;1.69;57.37;100240.53;4936052;28;20052;-74
2023/12/01 09:58:35;;;;;;;21.13;12.00;;;;;;;2.20;56.03;100241.03;4936970;28;20059;-74
2023/12/01 10:01:02;;;;;;;24.38;12.30;;;;;;;2.62;55.36;100242.00;4938250;28;20051;-74
2023/12/01 10:03:29;;;;;;;25.73;13.38;;;;;;;3.32;53.04;100232.09;4936254;28;20556;-74
2023/12/01 10:05:58;;;;;;;25.02;12.70;;;;;;;3.03;52.25;100236.69;4934772;28;20134;-70
2023/12/01 10:08:26;;;;;;;23.83;13.20;;;;;;;3.56;52.06;100235.84;4934210;28;20103;-72
2023/12/01 10:10:53;;;;;;;23.77;12.98;;;;;;;4.19;49.87;100227.97;4934192;28;20458;-70
2023/12/01 10:13:20;;;;;;;22.17;12.68;;;;;;;3.88;49.67;100227.41;4934518;28;20047;-72
2023/12/01 10:15:48;;;;;;;23.48;11.70;;;;;;;2.63;52.61;100243.72;4935408;28;20501;-71
2023/12/01 10:18:16;;;;;;;16.65;10.80;;;;;;;3.42;51.80;100226.97;4934650;28;20051;-71
2023/12/01 10:21:07;;;;;;;20.40;10.98;;;;;;;3.89;49.76;100237.19;4935052;28;20062;-71
2023/12/01 10:23:36;;;;;;;18.50;11.00;;;;;;;3.96;49.51;100232.25;4933620;28;20051;-70
2023/12/01 10:26:04;;;;;;;18.23;10.70;;;;;;;2.71;51.37;100238.72;4934735;28;20497;-73
2023/12/01 10:28:41;;;;;;;21.40;11.43;;;;;;;2.83;51.90;100231.75;4934216;28;20128;-71
2023/12/01 10:31:09;;;;;;;22.25;11.82;;;;;;;3.14;52.59;100225.25;4933257;28;20059;-71
2023/12/01 10:33:36;;;;;;;21.40;12.68;;;;;;;2.20;54.92;100232.16;4933245;28;20052;-71
2023/12/01 10:36:09;;;;;;;20.55;11.70;;;;;;;2.85;54.22;100230.69;4934277;28;20064;-71
2023/12/01 10:38:36;;;;;;;;;;;;;;;2.19;54.56;100228.63;4934381;28;20051;-71
2023/12/01 10:41:04;;;;;;;22.45;12.38;;;;;;;2.64;54.66;100224.91;4934060;28;19923;-71
2023/12/01 10:43:32;;;;;;;24.48;11.82;;;;;;;2.94;53.60;100232.78;4934324;28;20114;-71
2023/12/01 10:46:04;;;;;;;26.73;12.30;;;;;;;2.11;55.65;100229.09;4934168;28;20480;-71
2023/12/01 10:48:32;;;;;;;28.42;14.35;;;;;;;1.61;57.17;100224.13;4933535;28;20052;-71
2023/12/01 10:51:03;;;;;;;24.05;13.82;;;;;;;2.46;54.65;100230.53;4933599;28;20134;-71
2023/12/01 10:53:30;;;;;;;25.58;13.75;;;;;;;1.60;57.39;100232.22;4927700;28;20436;-71
2023/12/01 10:56:02;;;;;;;24.45;13.40;;;;;;;2.32;55.57;100224.22;4914886;29;20052;-71
2023/12/01 10:58:32;;;;;;;25.83;13.65;;;;;;;2.25;55.38;100217.53;4914358;29;20118;-70
2023/12/01 11:00:59;;;;;;;28.73;13.45;;;;;;;2.33;56.02;100217.91;4914276;29;20056;-71
2023/12/01 11:03:29;;;;;;;27.63;13.38;;;;;;;2.11;56.89;100228.22;4914939;29;20056;-71
2023/12/01 11:06:04;;;;;;;25.92;13.30;;;;;;;2.04;56.38;100229.53;4914090;29;20048;-71
2023/12/01 11:09:08;;;;;;;25.85;12.80;;;;;;;2.13;57.03;100234.34;4915284;29;20417;-71
2023/12/01 11:12:19;;;;;;;26.20;12.25;;;;;;;1.49;58.13;100230.16;4915071;29;20046;-71
2023/12/01 11:14:51;;;;;;;23.98;12.80;;;;;;;1.56;58.63;100239.56;4905147;29;20055;-72
2023/12/01 11:17:18;;;;;;;24.10;13.23;;;;;;;1.24;59.25;100238.78;4914720;29;20099;-71
2023/12/01 11:19:45;;;;;;;30.33;12.52;;;;;;;0.76;59.99;100237.91;4915649;29;20069;-71
2023/12/01 11:22:27;;;;;;;23.65;13.50;;;;;;;1.11;60.03;100225.25;4913521;29;20052;-71
2023/12/01 11:24:56;;;;;;;24.35;13.52;;;;;;;0.67;60.93;100228.59;4915090;29;20447;-73